Forside
METAR-TAF:

METAR-TAF

Lufthavne :

Caracas, Venezuela

Breddekreds: 10-36N, længdekreds: 066-59W, højde: 43 m

Aktuelle vejr

Denne rapport blev lavet for 9 timer og 18 minutter siden, kl. 14:00 UTC
Vind 6 kt fra øst
Temperatur 28°C
Fugtighed 74%
Tryk 1009 hPa
Sigt 10 km eller mere
Spredte skyer i en højde af 1600 ft

METAR: SVMI 171400Z 09006KT 9999 SCT016 28/23 Q1009

Tid: 19:18 (23:18 UTC)

Vejrudsigter

Denne rapport blev lavet for 13 timer og 18 minutter siden, kl. 10:00 UTC
Foreløbig gælder fra 17 på 12 UTC til 18 på 12 UTC
Vind kt fra nord
Sigt 10 km eller mere
Nogle få skyer i en højde af 1600 ft
Fra 17 på 1400 UTC
Vind 6 kt fra nordøst
Sigt 10 km eller mere
Nogle få skyer i en højde af 1600 ft
Spredte skyer i en højde af 10000 ft
ændring
fra 17 på 20 UTC til 18 på 00 UTC
Vind 12 kt fra nordøst
Spredte skyer i en højde af 1600 ft

TAF: SVMI 171000Z 1712/1812 00000KT 9999 FEW016 TX33/18Z TN26/08Z FM171400 05006KT 9999 FEW016 SCT100 BECMG 1720/1800 05012KT SCT016

Vejrobservationer og prognoser fra mere end 4000 lufthavne (METAR og TAF).

De gule og røde prikker repræsenterer de meteorologiske stationer.

Flyt musen over at se navnet på stationen.

Så klik over at se vejr observationer og prognoser.

At skifte det kort: Klik på de grønne knapper med et sort kors for at zoome ind; på den grønne knap med en bindestreg for at zoome ud; eller på de grønne pile for tilstødende kort.


METAR-TAF: